Time;durP1;ratioP1;P1;durP2;ratioP2;P2;SDS_P1;SDS_P2;PMS_P1;PMS_P2;Temp;Humidity;BMP_temperature;BMP_pressure;BME280_temperature;BME280_humidity;BME280_pressure;Samples;Min_cycle;Max_cycle;Signal;HPM_P1;HPM_P2
2022/05/19 00:01:04;;;;;;;6.33;5.07;;;19.20;85.00;;;;;;4996999;28;20459;-49
2022/05/19 00:03:34;;;;;;;7.27;4.20;;;19.10;85.30;;;;;;4987290;28;20465;-45
2022/05/19 00:06:02;;;;;;;5.63;5.10;;;19.10;86.00;;;;;;4997228;28;20454;-47
2022/05/19 00:08:30;;;;;;;5.63;5.13;;;19.10;87.20;;;;;;4997367;28;20482;-43
2022/05/19 00:11:00;;;;;;;5.03;4.40;;;19.10;88.20;;;;;;4997555;28;20435;-44
2022/05/19 00:13:29;;;;;;;4.30;3.90;;;19.00;88.20;;;;;;4997152;28;20467;-41
2022/05/19 00:15:56;;;;;;;5.33;4.77;;;19.00;89.60;;;;;;4997627;28;20446;-39
2022/05/19 00:18:23;;;;;;;5.27;4.47;;;19.00;90.20;;;;;;4997401;28;20451;-47
2022/05/19 00:20:52;;;;;;;6.87;4.47;;;18.90;90.70;;;;;;4997207;28;20548;-45
2022/05/19 00:23:19;;;;;;;5.50;4.57;;;18.90;91.20;;;;;;4997041;28;20462;-39
2022/05/19 00:25:47;;;;;;;5.10;4.60;;;18.90;91.50;;;;;;4996838;28;20514;-42
2022/05/19 00:28:14;;;;;;;6.63;5.50;;;18.90;91.70;;;;;;4996843;28;20451;-42
2022/05/19 00:30:47;;;;;;;6.50;4.10;;;18.80;92.00;;;;;;4997240;28;20450;-38
2022/05/19 00:33:14;;;;;;;6.93;4.93;;;18.80;92.70;;;;;;4997458;28;20467;-44
2022/05/19 00:35:41;;;;;;;6.47;4.70;;;18.80;92.60;;;;;;4996440;28;20450;-45
2022/05/19 00:38:09;;;;;;;9.50;4.50;;;18.80;92.60;;;;;;4997084;28;20518;-49
2022/05/19 00:40:36;;;;;;;4.73;4.27;;;18.70;93.30;;;;;;4996490;28;20427;-44
2022/05/19 00:43:05;;;;;;;5.50;4.73;;;18.70;93.60;;;;;;4996745;28;20536;-43
2022/05/19 00:45:45;;;;;;;4.93;4.30;;;18.70;94.00;;;;;;4996620;28;20439;-48
2022/05/19 00:48:20;;;;;;;10.03;4.70;;;18.60;94.50;;;;;;4997218;28;20471;-46
2022/05/19 00:50:56;;;;;;;6.40;4.20;;;18.60;95.20;;;;;;4996483;28;20919;-41
2022/05/19 00:53:31;;;;;;;5.60;4.10;;;18.60;95.30;;;;;;4996896;28;20423;-38
2022/05/19 00:56:02;;;;;;;5.10;4.27;;;18.60;95.40;;;;;;4996665;28;20494;-42
2022/05/19 00:58:34;;;;;;;11.33;4.30;;;18.50;95.90;;;;;;4996745;28;20447;-41
2022/05/19 01:01:02;;;;;;;4.63;4.20;;;18.50;96.80;;;;;;4996215;28;20426;-43
2022/05/19 01:03:34;;;;;;;7.30;5.23;;;18.50;96.70;;;;;;4996643;28;20493;-41
2022/05/19 01:06:08;;;;;;;4.80;4.40;;;18.40;96.90;;;;;;4996586;28;20439;-41
2022/05/19 01:08:42;;;;;;;5.20;4.73;;;18.40;97.80;;;;;;4996896;28;20502;-36
2022/05/19 01:11:12;;;;;;;6.33;4.60;;;18.40;98.10;;;;;;4996576;28;20458;-46
2022/05/19 01:13:40;;;;;;;5.53;4.23;;;18.40;97.90;;;;;;4997006;28;20498;-46
2022/05/19 01:16:08;;;;;;;7.87;4.90;;;18.40;98.50;;;;;;4997633;28;20454;-51
2022/05/19 01:18:36;;;;;;;4.73;4.30;;;18.40;99.40;;;;;;4996994;28;20458;-47
2022/05/19 01:21:04;;;;;;;5.07;4.57;;;18.30;99.30;;;;;;4997174;28;20480;-40
2022/05/19 01:23:39;;;;;;;7.90;4.30;;;18.30;99.20;;;;;;4996514;28;20553;-46
2022/05/19 01:26:15;;;;;;;5.40;4.90;;;18.30;99.60;;;;;;4996471;28;20450;-50
2022/05/19 01:28:45;;;;;;;4.53;3.80;;;18.30;99.70;;;;;;4996628;28;20466;-41
2022/05/19 01:31:27;;;;;;;4.20;3.90;;;18.30;99.70;;;;;;4996020;28;20455;-38
2022/05/19 01:33:54;;;;;;;5.07;4.00;;;18.30;99.70;;;;;;4996818;28;20477;-40
2022/05/19 01:36:21;;;;;;;5.10;4.33;;;18.20;99.90;;;;;;4996652;28;20446;-38
2022/05/19 01:38:51;;;;;;;6.53;5.47;;;18.20;99.90;;;;;;4996483;28;20437;-43
2022/05/19 01:41:24;;;;;;;5.63;4.27;;;18.20;99.90;;;;;;4996716;28;20533;-51
2022/05/19 01:44:07;;;;;;;5.33;3.90;;;18.10;99.90;;;;;;4996834;28;20451;-43
2022/05/19 01:46:37;;;;;;;4.43;4.03;;;18.10;99.90;;;;;;4997470;28;20498;-44
2022/05/19 01:49:13;;;;;;;5.77;4.43;;;18.10;99.90;;;;;;4997023;28;20494;-41
2022/05/19 01:51:44;;;;;;;5.27;4.10;;;18.00;99.90;;;;;;4996417;28;20458;-44
2022/05/19 01:54:19;;;;;;;6.30;3.90;;;18.00;99.90;;;;;;4996553;28;20434;-42
2022/05/19 01:56:53;;;;;;;4.23;3.83;;;17.90;99.90;;;;;;4996139;28;20450;-41
2022/05/19 01:59:28;;;;;;;5.00;4.50;;;17.90;99.90;;;;;;4996598;28;20395;-39
2022/05/19 02:02:00;;;;;;;7.17;4.10;;;17.90;99.90;;;;;;4997497;28;20435;-40
2022/05/19 02:04:31;;;;;;;5.50;4.30;;;17.90;99.90;;;;;;4999783;28;20561;-47
2022/05/19 02:07:02;;;;;;;3.70;3.40;;;17.80;99.90;;;;;;5000226;28;20439;-38
2022/05/19 02:09:33;;;;;;;4.90;4.40;;;17.80;99.90;;;;;;5000178;28;20435;-42
2022/05/19 02:12:01;;;;;;;3.90;3.60;;;17.70;99.90;;;;;;4999652;28;20427;-38
2022/05/19 02:14:31;;;;;;;8.37;4.40;;;17.70;99.90;;;;;;4999951;28;20455;-44
2022/05/19 02:17:05;;;;;;;9.07;5.27;;;17.70;99.90;;;;;;4999902;28;20471;-39
2022/05/19 02:19:37;;;;;;;6.63;4.93;;;17.60;99.90;;;;;;4999747;28;20435;-44
2022/05/19 02:22:06;;;;;;;4.33;3.90;;;17.60;99.90;;;;;;4999300;28;20510;-41
2022/05/19 02:24:38;;;;;;;8.33;4.70;;;17.60;99.90;;;;;;5000284;28;20482;-50
2022/05/19 02:27:23;;;;;;;7.57;4.00;;;17.60;99.90;;;;;;4999289;28;20434;-43
2022/05/19 02:29:51;;;;;;;5.70;4.90;;;17.50;99.90;;;;;;5000254;28;20489;-37
2022/05/19 02:32:18;;;;;;;8.53;5.03;;;17.50;99.90;;;;;;4990694;28;20435;-54
2022/05/19 02:34:45;;;;;;;12.83;4.70;;;17.50;99.90;;;;;;4994700;28;20480;-37
2022/05/19 02:37:11;;;;;;;7.03;4.73;;;17.50;99.90;;;;;;4999240;28;20449;-45
2022/05/19 02:39:39;;;;;;;6.43;4.40;;;17.40;99.90;;;;;;4999623;28;20446;-39
2022/05/19 02:42:07;;;;;;;4.30;3.90;;;17.40;99.90;;;;;;4999364;28;20522;-42
2022/05/19 02:44:33;;;;;;;4.53;4.07;;;17.40;99.90;;;;;;4999614;28;20489;-44
2022/05/19 02:47:01;;;;;;;6.37;4.40;;;17.40;99.90;;;;;;4999082;28;20481;-41
2022/05/19 02:49:28;;;;;;;4.30;3.83;;;17.40;99.90;;;;;;4999128;28;20492;-42
2022/05/19 02:51:55;;;;;;;6.20;4.60;;;17.40;99.90;;;;;;4992996;28;20768;-47
2022/05/19 02:54:21;;;;;;;5.37;4.83;;;17.40;99.90;;;;;;4991174;28;20459;-41
2022/05/19 02:56:50;;;;;;;4.47;4.07;;;17.40;99.90;;;;;;4999206;28;20447;-43
2022/05/19 02:59:17;;;;;;;4.30;2.90;;;17.40;99.90;;;;;;4999354;28;20506;-41
2022/05/19 03:01:44;;;;;;;9.83;4.57;;;17.30;99.90;;;;;;4999770;28;20455;-46
2022/05/19 03:04:12;;;;;;;3.97;3.57;;;17.30;99.90;;;;;;4999232;28;20471;-42
2022/05/19 03:06:39;;;;;;;8.50;4.23;;;17.30;99.90;;;;;;4998504;28;20453;-45
2022/05/19 03:09:05;;;;;;;8.00;4.20;;;17.30;99.90;;;;;;4991469;28;20435;-47
2022/05/19 03:11:33;;;;;;;3.53;3.20;;;17.30;99.90;;;;;;4998540;28;20509;-40
2022/05/19 03:14:01;;;;;;;5.83;4.10;;;17.30;99.90;;;;;;4997754;28;20466;-38
2022/05/19 03:16:28;;;;;;;3.90;3.30;;;17.30;99.90;;;;;;4998743;28;20462;-48
2022/05/19 03:18:54;;;;;;;5.60;4.50;;;17.30;99.90;;;;;;4998522;28;20455;-42
2022/05/19 03:21:23;;;;;;;10.63;5.17;;;17.20;99.90;;;;;;4991679;28;20473;-49
2022/05/19 03:23:50;;;;;;;8.10;4.70;;;17.20;99.90;;;;;;4994146;28;20473;-46
2022/05/19 03:26:16;;;;;;;9.07;4.17;;;17.20;99.90;;;;;;4998577;28;20431;-46
2022/05/19 03:28:43;;;;;;;5.13;4.10;;;17.10;99.90;;;;;;4998185;28;20482;-42
2022/05/19 03:31:16;;;;;;;5.73;4.33;;;17.10;99.90;;;;;;4998338;28;20519;-46
2022/05/19 03:33:43;;;;;;;4.23;3.20;;;17.10;99.90;;;;;;4998602;28;20447;-45
2022/05/19 03:36:12;;;;;;;4.47;3.40;;;17.00;99.90;;;;;;4998816;28;20471;-44
2022/05/19 03:38:40;;;;;;;6.47;3.53;;;17.10;99.90;;;;;;4998590;28;20454;-45
2022/05/19 03:41:06;;;;;;;5.40;4.37;;;17.10;99.90;;;;;;4998691;28;20501;-43
2022/05/19 03:43:36;;;;;;;4.63;4.03;;;17.00;99.90;;;;;;4998055;28;20451;-50
2022/05/19 03:46:03;;;;;;;3.70;3.33;;;17.00;99.90;;;;;;4997810;28;20443;-41
2022/05/19 03:48:33;;;;;;;5.00;4.47;;;17.00;99.90;;;;;;4998077;28;20471;-40
2022/05/19 03:50:59;;;;;;;5.40;4.07;;;17.00;99.90;;;;;;4998387;28;20434;-38
2022/05/19 03:53:26;;;;;;;9.50;3.77;;;17.00;99.90;;;;;;4997959;28;20446;-46
2022/05/19 03:55:56;;;;;;;6.03;4.33;;;17.00;99.90;;;;;;4997830;28;20470;-43
2022/05/19 03:58:25;;;;;;;5.70;3.60;;;17.00;99.90;;;;;;4997666;28;20441;-46
2022/05/19 04:00:51;;;;;;;4.30;3.53;;;17.00;99.90;;;;;;4997608;28;20485;-46
2022/05/19 04:03:20;;;;;;;4.00;3.37;;;17.00;99.90;;;;;;4997932;28;20455;-44
2022/05/19 04:05:46;;;;;;;5.73;4.47;;;17.00;99.90;;;;;;4998006;28;20490;-45
2022/05/19 04:08:15;;;;;;;16.97;4.77;;;17.10;99.90;;;;;;4998170;28;20465;-45
2022/05/19 04:10:44;;;;;;;9.97;4.23;;;17.10;99.90;;;;;;4997741;28;20439;-43
2022/05/19 04:13:13;;;;;;;6.77;3.50;;;17.10;99.90;;;;;;4997339;28;20477;-43
2022/05/19 04:15:41;;;;;;;6.60;4.40;;;17.10;99.90;;;;;;4997620;28;20484;-40
2022/05/19 04:18:09;;;;;;;13.90;3.87;;;17.10;99.90;;;;;;4997184;28;20451;-46
2022/05/19 04:20:35;;;;;;;4.97;3.70;;;17.10;99.90;;;;;;4997538;28;20465;-45
2022/05/19 04:23:03;;;;;;;5.77;4.23;;;17.20;99.90;;;;;;4997442;28;20443;-37
2022/05/19 04:25:30;;;;;;;5.13;3.77;;;17.20;99.90;;;;;;4996550;28;20493;-50
2022/05/19 04:27:57;;;;;;;5.27;4.10;;;17.20;99.90;;;;;;4989990;28;20825;-49
2022/05/19 04:30:26;;;;;;;6.43;4.27;;;17.10;99.90;;;;;;4993509;28;20439;-51
2022/05/19 04:32:53;;;;;;;6.17;4.17;;;17.20;99.90;;;;;;4986642;28;20492;-47
2022/05/19 04:35:21;;;;;;;6.37;3.57;;;17.20;99.90;;;;;;4997270;28;20448;-44
2022/05/19 04:37:48;;;;;;;4.63;4.23;;;17.20;99.90;;;;;;4996621;28;20455;-50
2022/05/19 04:40:16;;;;;;;6.53;4.10;;;17.20;99.90;;;;;;4996617;28;20474;-46
2022/05/19 04:42:44;;;;;;;8.40;4.10;;;17.30;99.90;;;;;;4988374;28;20483;-41
2022/05/19 04:45:13;;;;;;;4.70;4.10;;;17.30;99.90;;;;;;4996922;28;20482;-45
2022/05/19 04:47:45;;;;;;;5.73;4.17;;;17.30;99.90;;;;;;4997536;28;20443;-51
2022/05/19 04:50:13;;;;;;;8.90;4.07;;;17.30;99.90;;;;;;4997279;28;20489;-41
2022/05/19 04:52:44;;;;;;;11.30;4.60;;;17.30;99.90;;;;;;4996914;28;20467;-45
2022/05/19 04:55:11;;;;;;;4.80;3.60;;;17.40;99.90;;;;;;4996364;28;20447;-40
2022/05/19 04:57:42;;;;;;;7.77;3.30;;;17.40;99.90;;;;;;4996751;28;20431;-45
2022/05/19 05:00:13;;;;;;;9.17;4.00;;;17.40;99.90;;;;;;4997112;28;20411;-41
2022/05/19 05:02:41;;;;;;;4.30;3.90;;;17.50;99.90;;;;;;4993902;28;20465;-45
2022/05/19 05:05:08;;;;;;;6.10;4.27;;;17.50;99.90;;;;;;4990909;28;20571;-45
2022/05/19 05:07:35;;;;;;;4.33;3.90;;;17.60;99.90;;;;;;4996516;28;20457;-39
2022/05/19 05:10:02;;;;;;;7.13;3.80;;;17.60;99.90;;;;;;4996732;28;20422;-42
2022/05/19 05:12:31;;;;;;;5.57;4.23;;;17.60;99.90;;;;;;4996859;28;20439;-48
2022/05/19 05:14:58;;;;;;;4.20;3.80;;;17.70;99.90;;;;;;4996725;28;20506;-42
2022/05/19 05:17:26;;;;;;;6.47;3.97;;;17.80;99.90;;;;;;4996646;28;20924;-41
2022/05/19 05:19:55;;;;;;;5.73;4.70;;;17.80;99.90;;;;;;4996513;28;20467;-43
2022/05/19 05:22:25;;;;;;;5.10;4.40;;;18.00;99.90;;;;;;4987799;28;20428;-47
2022/05/19 05:24:52;;;;;;;5.50;3.80;;;18.00;99.90;;;;;;4995756;28;20469;-40
2022/05/19 05:27:18;;;;;;;5.70;4.03;;;18.10;99.90;;;;;;4996288;28;20550;-53
2022/05/19 05:29:45;;;;;;;6.43;4.53;;;18.20;99.90;;;;;;4994744;28;20430;-51
2022/05/19 05:32:12;;;;;;;5.93;3.93;;;18.30;99.90;;;;;;4988265;28;20494;-42
2022/05/19 05:34:39;;;;;;;8.13;3.90;;;18.40;99.90;;;;;;4989521;28;20431;-49
2022/05/19 05:37:07;;;;;;;5.13;4.00;;;18.50;99.90;;;;;;4998817;28;20431;-47
2022/05/19 05:39:34;;;;;;;6.73;4.03;;;18.60;99.90;;;;;;4999458;28;20531;-46
2022/05/19 05:42:02;;;;;;;6.23;4.50;;;18.70;99.90;;;;;;4997198;28;20474;-39
2022/05/19 05:44:28;;;;;;;6.67;6.03;;;18.80;99.90;;;;;;4993468;28;20521;-50
2022/05/19 05:46:55;;;;;;;6.03;4.57;;;19.00;99.90;;;;;;4989285;28;20479;-44
2022/05/19 05:49:22;;;;;;;5.60;4.40;;;19.10;99.90;;;;;;4997483;28;20944;-41
2022/05/19 05:51:48;;;;;;;8.23;4.60;;;19.20;99.90;;;;;;4997432;28;20443;-43
2022/05/19 05:54:17;;;;;;;5.93;4.23;;;19.40;99.90;;;;;;4997913;28;20519;-43
2022/05/19 05:56:45;;;;;;;5.27;4.37;;;19.60;99.90;;;;;;4999557;28;20541;-41
2022/05/19 05:59:12;;;;;;;5.93;4.30;;;19.80;99.90;;;;;;4997255;28;20485;-41
2022/05/19 06:01:39;;;;;;;4.00;3.63;;;19.90;99.90;;;;;;4997871;28;20510;-47
2022/05/19 06:04:06;;;;;;;8.63;5.63;;;19.90;99.90;;;;;;4994645;28;20451;-46
2022/05/19 06:06:39;;;;;;;8.40;4.90;;;19.90;99.90;;;;;;4979968;28;20952;-46
2022/05/19 06:09:06;;;;;;;4.87;4.37;;;19.90;99.90;;;;;;4995060;28;20462;-49
2022/05/19 06:11:34;;;;;;;4.40;3.80;;;19.80;99.90;;;;;;4984006;28;20483;-42
2022/05/19 06:34:21;;;;;;;7.10;4.20;;;19.90;99.90;;;;;;5302401;23;20498;-48
2022/05/19 06:36:49;;;;;;;6.37;4.70;;;20.00;99.90;;;;;;4980347;28;20440;-46
2022/05/19 06:39:17;;;;;;;7.57;5.70;;;20.00;99.90;;;;;;4978539;28;20501;-52
2022/05/19 06:42:04;;;;;;;8.73;5.67;;;20.10;99.90;;;;;;4974894;28;20474;-44
2022/05/19 06:44:33;;;;;;;7.70;4.43;;;20.20;99.90;;;;;;4995759;28;20493;-44
2022/05/19 06:47:00;;;;;;;3.73;3.30;;;20.20;99.90;;;;;;4992644;28;20443;-46
2022/05/19 06:49:29;;;;;;;5.57;4.57;;;20.30;99.90;;;;;;4994327;28;20442;-49
2022/05/19 06:51:56;;;;;;;5.77;4.70;;;20.30;99.90;;;;;;4968350;28;20442;-42
2022/05/19 06:54:23;;;;;;;6.53;5.03;;;20.40;99.90;;;;;;4985861;28;20427;-40
2022/05/19 06:56:50;;;;;;;5.87;4.90;;;20.50;99.90;;;;;;4988068;28;20475;-43
2022/05/19 06:59:17;;;;;;;7.63;4.37;;;20.70;99.90;;;;;;4971948;29;20479;-50
2022/05/19 07:01:45;;;;;;;4.90;4.40;;;20.80;99.90;;;;;;4970337;28;20470;-43
2022/05/19 07:04:12;;;;;;;5.30;4.73;;;20.90;99.90;;;;;;4979205;28;20447;-47
2022/05/19 07:06:40;;;;;;;6.17;4.23;;;21.00;99.90;;;;;;4979094;28;20531;-46
2022/05/19 07:09:06;;;;;;;5.40;4.43;;;21.10;99.90;;;;;;4978217;29;20459;-44
2022/05/19 07:11:33;;;;;;;4.93;4.43;;;21.30;99.90;;;;;;4965891;28;20904;-53
2022/05/19 07:14:02;;;;;;;6.00;4.77;;;21.60;99.90;;;;;;4975120;28;20436;-45
2022/05/19 07:16:29;;;;;;;7.43;4.57;;;22.40;99.90;;;;;;4977786;28;20435;-48
2022/05/19 07:20:43;;;;;;;8.87;5.50;;;23.30;98.20;;;;;;4978401;29;20502;-46
2022/05/19 07:21:46;;;;;;;4.73;4.10;;;24.30;95.30;;;;;;4978388;29;20439;-39
2022/05/19 07:24:16;;;;;;;5.90;4.10;;;25.40;92.10;;;;;;4979242;28;20467;-41
2022/05/19 07:26:43;;;;;;;5.90;4.97;;;26.10;88.20;;;;;;4979013;28;20468;-42
2022/05/19 07:29:10;;;;;;;7.37;4.70;;;26.60;84.10;;;;;;4978116;28;20495;-48
2022/05/19 07:31:37;;;;;;;4.20;3.87;;;27.20;79.50;;;;;;4969592;28;20817;-54
2022/05/19 07:34:04;;;;;;;7.97;4.70;;;27.80;76.50;;;;;;4970313;28;20475;-50
2022/05/19 07:36:31;;;;;;;4.67;4.17;;;28.50;72.00;;;;;;4978862;28;20452;-45
2022/05/19 07:39:00;;;;;;;8.57;4.77;;;28.90;69.80;;;;;;4969273;29;20451;-54
2022/05/19 07:41:26;;;;;;;6.13;5.53;;;29.40;66.00;;;;;;4971524;29;20459;-45
2022/05/19 07:43:53;;;;;;;5.30;4.80;;;29.70;64.50;;;;;;4978038;28;20451;-49
2022/05/19 07:46:20;;;;;;;5.13;4.73;;;30.10;63.30;;;;;;4978191;28;20498;-43
2022/05/19 07:48:50;;;;;;;4.63;4.33;;;30.50;61.70;;;;;;4977985;28;20467;-46
2022/05/19 07:51:16;;;;;;;5.17;4.67;;;30.70;59.80;;;;;;4977602;29;20471;-44
2022/05/19 07:53:43;;;;;;;5.00;4.50;;;31.00;58.20;;;;;;4977497;28;20428;-47
2022/05/19 07:56:11;;;;;;;5.67;4.77;;;31.10;57.10;;;;;;4978187;28;20479;-43
2022/05/19 07:58:38;;;;;;;5.50;5.00;;;31.30;56.90;;;;;;4977513;28;20456;-42
2022/05/19 08:01:05;;;;;;;6.47;5.87;;;31.80;55.60;;;;;;4977115;29;20448;-41
2022/05/19 08:03:32;;;;;;;9.70;4.80;;;32.10;54.70;;;;;;4976961;28;20448;-46
2022/05/19 08:05:58;;;;;;;6.90;4.80;;;32.40;53.70;;;;;;4977491;28;20468;-45
2022/05/19 08:08:26;;;;;;;5.63;5.20;;;32.70;53.40;;;;;;4977370;28;20551;-44
2022/05/19 08:10:54;;;;;;;8.70;5.00;;;32.80;52.60;;;;;;4977349;28;20440;-47
2022/05/19 08:16:07;;;;;;;6.80;4.60;;;33.00;51.80;;;;;;4968573;29;20427;-49
2022/05/19 08:18:33;;;;;;;4.77;4.37;;;33.00;51.50;;;;;;4976869;28;20451;-40
2022/05/19 08:21:02;;;;;;;9.37;4.83;;;33.10;51.00;;;;;;4976929;28;20420;-42
2022/05/19 08:23:31;;;;;;;5.13;4.00;;;33.20;50.60;;;;;;4977178;28;20464;-44
2022/05/19 08:25:58;;;;;;;5.50;5.10;;;33.30;50.60;;;;;;4977217;29;20544;-49
2022/05/19 08:28:29;;;;;;;8.20;5.03;;;33.60;49.80;;;;;;4978072;28;20431;-50
2022/05/19 08:30:58;;;;;;;7.77;5.53;;;33.80;49.70;;;;;;4977374;28;20484;-40
2022/05/19 08:33:26;;;;;;;5.37;4.70;;;34.00;49.30;;;;;;4976883;28;20456;-47
2022/05/19 08:35:52;;;;;;;5.20;4.80;;;34.40;48.90;;;;;;4977220;28;20515;-45
2022/05/19 08:38:20;;;;;;;13.03;5.00;;;34.80;48.40;;;;;;4976922;28;20463;-46
2022/05/19 08:40:51;;;;;;;6.23;5.73;;;35.20;47.60;;;;;;4977291;28;20470;-41
2022/05/19 08:43:20;;;;;;;6.30;4.83;;;35.50;47.20;;;;;;4977066;28;20432;-48
2022/05/19 08:45:51;;;;;;;5.17;4.50;;;35.80;46.60;;;;;;4976234;28;20495;-44
2022/05/19 08:48:21;;;;;;;4.40;3.83;;;36.10;45.90;;;;;;4977033;29;20789;-50
2022/05/19 08:50:52;;;;;;;8.03;4.27;;;36.30;46.00;;;;;;4976596;29;20421;-42
2022/05/19 08:53:19;;;;;;;8.20;4.37;;;36.60;45.00;;;;;;4977344;29;20468;-45
2022/05/19 08:55:51;;;;;;;6.50;4.20;;;36.80;44.70;;;;;;4976778;28;20523;-48
2022/05/19 08:58:41;;;;;;;6.83;4.37;;;36.80;44.60;;;;;;4977228;28;20468;-51
2022/05/19 09:01:16;;;;;;;3.97;3.67;;;37.00;43.70;;;;;;4976752;29;20480;-46
2022/05/19 09:03:53;;;;;;;4.60;4.20;;;37.10;43.30;;;;;;4976781;28;20455;-45
2022/05/19 09:06:34;;;;;;;7.30;4.63;;;37.20;43.00;;;;;;4976952;28;20479;-46
2022/05/19 09:09:13;;;;;;;6.93;4.90;;;37.10;43.30;;;;;;4976481;28;20526;-49
2022/05/19 09:11:46;;;;;;;8.20;4.10;;;37.40;42.60;;;;;;4976356;28;20499;-47
2022/05/19 09:14:21;;;;;;;4.40;4.00;;;37.60;41.80;;;;;;4959170;28;20436;-49
2022/05/19 09:16:52;;;;;;;5.13;4.37;;;37.50;42.00;;;;;;4965425;29;20803;-52
2022/05/19 09:19:24;;;;;;;5.80;4.60;;;37.40;42.20;;;;;;4970521;29;20454;-46
2022/05/19 09:22:01;;;;;;;4.67;4.20;;;37.30;42.10;;;;;;4976938;28;20908;-48
2022/05/19 09:24:27;;;;;;;3.90;3.60;;;37.10;42.40;;;;;;4975818;28;20459;-50
2022/05/19 09:26:56;;;;;;;5.40;4.57;;;37.00;41.60;;;;;;4976413;28;20497;-47
2022/05/19 09:29:30;;;;;;;3.77;3.47;;;36.90;41.90;;;;;;4976319;28;20483;-48
2022/05/19 09:32:07;;;;;;;5.10;4.70;;;36.90;41.80;;;;;;4975036;28;20466;-50
2022/05/19 09:34:35;;;;;;;5.10;4.60;;;36.70;42.20;;;;;;4976063;28;20416;-50
2022/05/19 09:37:09;;;;;;;4.80;4.40;;;36.80;42.30;;;;;;4972423;28;20468;-53
2022/05/19 09:39:45;;;;;;;5.27;4.07;;;36.60;42.40;;;;;;4964175;29;20436;-43
2022/05/19 09:42:15;;;;;;;5.70;4.27;;;36.40;42.40;;;;;;4976139;28;20912;-47
2022/05/19 09:44:45;;;;;;;6.00;5.40;;;36.30;42.90;;;;;;4974808;29;20432;-43
2022/05/19 09:47:20;;;;;;;7.20;4.00;;;36.40;42.50;;;;;;4976883;28;20539;-45
2022/05/19 09:49:54;;;;;;;4.10;3.70;;;36.00;42.50;;;;;;4975354;29;20458;-48
2022/05/19 09:52:26;;;;;;;5.83;4.43;;;35.70;43.30;;;;;;4976532;29;20432;-48
2022/05/19 09:54:56;;;;;;;4.57;4.17;;;35.30;43.70;;;;;;4960026;28;20550;-51
2022/05/19 09:57:27;;;;;;;4.70;4.30;;;34.70;44.90;;;;;;4972755;29;20487;-53
2022/05/19 09:59:59;;;;;;;5.30;4.80;;;34.40;45.30;;;;;;4959272;28;20546;-52
2022/05/19 10:02:33;;;;;;;6.93;3.70;;;34.20;46.30;;;;;;4965114;28;20527;-52
2022/05/19 10:05:02;;;;;;;6.20;4.20;;;34.20;46.00;;;;;;4967796;29;20569;-46
2022/05/19 10:07:35;;;;;;;3.63;3.33;;;34.30;45.90;;;;;;4976260;28;20527;-54
2022/05/19 10:10:03;;;;;;;4.60;4.30;;;34.40;45.90;;;;;;4959684;28;20429;-48
2022/05/19 10:12:32;;;;;;;4.83;4.43;;;34.60;45.10;;;;;;4976179;28;20412;-47
2022/05/19 10:15:01;;;;;;;6.63;5.23;;;34.80;45.50;;;;;;4976180;28;20476;-45
2022/05/19 10:17:52;;;;;;;6.80;5.03;;;34.90;45.40;;;;;;4975619;28;20493;-48
2022/05/19 10:20:21;;;;;;;5.50;5.00;;;35.10;44.10;;;;;;4976166;28;20432;-44
2022/05/19 10:23:13;;;;;;;6.00;4.37;;;35.20;44.40;;;;;;4976449;28;20444;-46
2022/05/19 10:26:03;;;;;;;4.47;4.10;;;35.10;43.90;;;;;;4979871;28;20467;-41
2022/05/19 10:31:45;;;;;;;4.90;4.47;;;34.50;44.60;;;;;;4979073;29;20431;-44
2022/05/19 10:34:31;;;;;;;4.60;4.20;;;34.10;45.10;;;;;;4978776;29;20427;-48
2022/05/19 10:37:06;;;;;;;4.13;3.53;;;33.80;45.70;;;;;;4978089;28;20412;-42
2022/05/19 10:39:50;;;;;;;4.00;3.70;;;33.50;46.40;;;;;;4978825;28;20482;-43
2022/05/19 10:42:25;;;;;;;7.23;4.70;;;33.10;46.80;;;;;;4978698;28;20427;-49
2022/05/19 10:45:10;;;;;;;4.80;3.83;;;32.70;47.40;;;;;;4962141;28;20479;-54
2022/05/19 10:47:47;;;;;;;4.87;4.20;;;32.60;47.50;;;;;;4967459;28;20507;-54
2022/05/19 10:50:32;;;;;;;5.43;4.93;;;32.50;47.10;;;;;;4972970;28;20455;-50
2022/05/19 10:53:34;;;;;;;4.37;3.97;;;32.30;47.90;;;;;;4978618;28;20440;-51
2022/05/19 10:56:20;;;;;;;5.70;3.83;;;32.30;48.40;;;;;;4968893;28;20460;-48
2022/05/19 10:58:57;;;;;;;10.43;7.43;;;32.20;48.10;;;;;;4977718;28;20462;-47
2022/05/19 11:01:43;;;;;;;12.87;10.57;;;32.20;48.60;;;;;;4977575;28;20471;-54
2022/05/19 11:04:33;;;;;;;9.27;8.13;;;32.10;48.70;;;;;;4978453;29;20541;-45
2022/05/19 11:07:21;;;;;;;4.60;4.20;;;32.00;48.70;;;;;;4976200;28;20494;-48
2022/05/19 11:09:57;;;;;;;6.70;5.87;;;31.80;48.70;;;;;;4977737;28;20593;-42
2022/05/19 11:12:32;;;;;;;6.80;5.47;;;31.60;49.00;;;;;;4978705;29;20459;-43
2022/05/19 11:15:11;;;;;;;8.33;6.53;;;31.30;49.40;;;;;;4978630;29;20442;-52
2022/05/19 11:17:49;;;;;;;10.57;7.40;;;31.20;50.10;;;;;;4978360;28;20467;-47
2022/05/19 11:20:21;;;;;;;5.93;5.03;;;31.30;49.90;;;;;;4978665;28;20436;-51
2022/05/19 11:22:52;;;;;;;7.73;6.97;;;31.30;50.00;;;;;;4977580;28;20495;-48
2022/05/19 11:28:19;;;;;;;6.03;4.47;;;31.50;48.90;;;;;;4976128;29;20552;-48
2022/05/19 11:30:50;;;;;;;7.40;4.50;;;31.30;48.80;;;;;;4977029;28;20547;-45
2022/05/19 11:33:22;;;;;;;4.60;3.93;;;31.10;49.10;;;;;;4977923;28;20451;-51
2022/05/19 11:35:56;;;;;;;4.17;3.80;;;31.00;49.20;;;;;;4978327;28;20470;-43
2022/05/19 11:38:32;;;;;;;4.00;3.70;;;31.00;49.40;;;;;;4978940;28;20436;-48
2022/05/19 11:41:04;;;;;;;3.80;3.50;;;30.70;49.70;;;;;;4978088;28;20454;-46
2022/05/19 11:43:36;;;;;;;6.63;5.60;;;30.60;50.20;;;;;;4977513;28;20432;-47
2022/05/19 11:46:07;;;;;;;4.97;4.50;;;30.40;50.40;;;;;;4975804;28;20475;-54
2022/05/19 11:57:16;;;;;;;4.70;4.30;;;29.70;50.50;;;;;;4977354;29;20466;-49
2022/05/19 11:59:47;;;;;;;3.90;3.60;;;29.60;50.60;;;;;;4977319;29;20432;-43
2022/05/19 12:02:18;;;;;;;5.30;4.00;;;29.60;51.10;;;;;;4978046;28;20527;-51
2022/05/19 12:04:47;;;;;;;5.67;4.03;;;29.70;51.10;;;;;;4977705;28;20483;-47
2022/05/19 12:07:22;;;;;;;4.57;4.27;;;29.80;51.00;;;;;;4977962;29;20491;-48
2022/05/19 12:09:56;;;;;;;5.00;4.50;;;29.90;51.10;;;;;;4977136;28;20440;-48
2022/05/19 12:12:27;;;;;;;5.13;4.20;;;30.00;50.60;;;;;;4976784;28;20467;-46
2022/05/19 12:15:15;;;;;;;6.80;4.30;;;30.00;50.70;;;;;;4976990;28;20448;-49
2022/05/19 12:17:45;;;;;;;4.00;3.60;;;30.00;50.20;;;;;;4973437;28;20908;-55
2022/05/19 12:20:36;;;;;;;3.90;3.50;;;30.10;50.50;;;;;;4963006;29;20483;-47
2022/05/19 12:23:16;;;;;;;5.10;3.80;;;30.20;49.60;;;;;;4976093;29;20452;-46
2022/05/19 12:25:49;;;;;;;4.37;3.83;;;30.10;50.20;;;;;;4976659;28;20435;-44
2022/05/19 12:28:32;;;;;;;5.00;4.60;;;30.20;50.20;;;;;;4977536;28;20464;-55
2022/05/19 12:33:52;;;;;;;3.80;3.50;;;30.20;50.20;;;;;;4977377;29;20439;-51
2022/05/19 12:36:26;;;;;;;3.53;3.23;;;30.10;48.90;;;;;;4976059;28;20476;-45
2022/05/19 12:39:08;;;;;;;3.90;3.60;;;30.00;49.40;;;;;;4976878;28;21022;-44
2022/05/19 12:41:40;;;;;;;6.63;4.20;;;30.10;49.60;;;;;;4976065;28;20496;-48
2022/05/19 12:44:26;;;;;;;4.63;3.63;;;30.20;49.70;;;;;;4976067;28;20465;-46
2022/05/19 12:47:00;;;;;;;7.50;3.10;;;30.30;48.60;;;;;;4975948;28;20495;-41
2022/05/19 12:49:31;;;;;;;5.30;3.63;;;30.20;48.70;;;;;;4976675;28;20440;-48
2022/05/19 12:52:02;;;;;;;3.80;3.50;;;30.30;48.50;;;;;;4976528;28;20483;-51
2022/05/19 12:54:33;;;;;;;4.60;3.50;;;30.30;48.70;;;;;;4976982;28;20452;-47
2022/05/19 12:57:31;;;;;;;4.87;4.40;;;30.30;48.30;;;;;;4976712;29;20468;-48
2022/05/19 13:00:20;;;;;;;6.00;3.50;;;30.30;48.50;;;;;;4977062;28;20431;-45
2022/05/19 13:02:56;;;;;;;8.00;4.10;;;30.40;48.90;;;;;;4977040;28;20472;-47
2022/05/19 13:05:34;;;;;;;3.80;3.50;;;30.40;48.50;;;;;;4977295;29;20451;-43
2022/05/19 13:08:09;;;;;;;8.47;3.90;;;30.20;48.90;;;;;;4976052;29;20460;-39
2022/05/19 13:10:38;;;;;;;4.00;3.60;;;30.00;48.90;;;;;;4969049;29;20447;-53
2022/05/19 13:13:18;;;;;;;4.80;4.40;;;29.90;49.30;;;;;;4965878;29;20483;-44
2022/05/19 13:15:53;;;;;;;5.93;4.30;;;29.90;49.80;;;;;;4976559;28;20419;-51
2022/05/19 13:18:26;;;;;;;4.77;4.30;;;29.90;49.70;;;;;;4977096;28;20462;-42
2022/05/19 13:21:02;;;;;;;4.50;3.77;;;29.90;50.00;;;;;;4976455;28;20439;-50
2022/05/19 13:23:30;;;;;;;4.33;3.93;;;29.90;50.00;;;;;;4976688;28;20427;-41
2022/05/19 13:26:04;;;;;;;6.37;3.30;;;29.90;50.10;;;;;;4961268;28;20479;-52
2022/05/19 13:31:22;;;;;;;3.80;3.47;;;30.00;49.40;;;;;;4968793;29;20570;-50
2022/05/19 13:33:51;;;;;;;5.33;3.70;;;30.00;49.90;;;;;;4976745;28;20468;-48
2022/05/19 13:36:28;;;;;;;4.00;3.60;;;30.10;49.60;;;;;;4976214;29;20503;-46
2022/05/19 13:39:05;;;;;;;4.53;4.13;;;30.10;49.20;;;;;;4965049;29;20436;-51
2022/05/19 13:41:32;;;;;;;3.87;3.20;;;30.00;49.20;;;;;;4971265;28;20455;-47
2022/05/19 13:44:02;;;;;;;3.93;3.50;;;30.00;49.00;;;;;;4977077;28;20408;-46
2022/05/19 13:46:29;;;;;;;4.53;3.80;;;29.90;48.90;;;;;;4976844;28;20444;-44
2022/05/19 13:48:59;;;;;;;13.17;11.60;;;29.80;48.90;;;;;;4976178;28;20463;-51